sensor_id;sensor_type;location;lat;lon;timestamp;P1;durP1;ratioP1;P2;durP2;ratioP2
61127;SDS011;47013;42.664;23.242;2023-07-16T00:00:56;2.13;;;0.95;;
61127;SDS011;47013;42.664;23.242;2023-07-16T00:03:22;1.70;;;0.93;;
61127;SDS011;47013;42.664;23.242;2023-07-16T00:05:50;1.50;;;1.02;;
61127;SDS011;47013;42.664;23.242;2023-07-16T00:08:16;1.42;;;1.00;;
61127;SDS011;47013;42.664;23.242;2023-07-16T00:10:42;1.10;;;1.00;;
61127;SDS011;47013;42.664;23.242;2023-07-16T00:13:07;1.60;;;1.00;;
61127;SDS011;47013;42.664;23.242;2023-07-16T00:15:32;1.45;;;1.00;;
61127;SDS011;47013;42.664;23.242;2023-07-16T00:17:58;1.70;;;0.80;;
61127;SDS011;47013;42.664;23.242;2023-07-16T00:20:23;1.13;;;0.93;;
61127;SDS011;47013;42.664;23.242;2023-07-16T00:22:49;1.98;;;1.15;;
61127;SDS011;47013;42.664;23.242;2023-07-16T00:25:15;1.60;;;0.90;;
61127;SDS011;47013;42.664;23.242;2023-07-16T00:27:41;1.52;;;1.00;;
61127;SDS011;47013;42.664;23.242;2023-07-16T00:30:07;1.27;;;1.15;;
61127;SDS011;47013;42.664;23.242;2023-07-16T00:32:33;1.98;;;0.88;;
61127;SDS011;47013;42.664;23.242;2023-07-16T00:34:58;1.17;;;0.90;;
61127;SDS011;47013;42.664;23.242;2023-07-16T00:37:23;4.30;;;1.48;;
61127;SDS011;47013;42.664;23.242;2023-07-16T00:39:49;1.63;;;1.23;;
61127;SDS011;47013;42.664;23.242;2023-07-16T00:42:14;1.58;;;0.98;;
61127;SDS011;47013;42.664;23.242;2023-07-16T00:44:40;1.83;;;1.00;;
61127;SDS011;47013;42.664;23.242;2023-07-16T00:47:05;1.95;;;1.05;;
61127;SDS011;47013;42.664;23.242;2023-07-16T00:49:31;1.73;;;1.55;;
61127;SDS011;47013;42.664;23.242;2023-07-16T00:51:57;2.13;;;0.70;;
61127;SDS011;47013;42.664;23.242;2023-07-16T00:54:24;0.97;;;0.63;;
61127;SDS011;47013;42.664;23.242;2023-07-16T00:56:49;1.35;;;1.10;;
61127;SDS011;47013;42.664;23.242;2023-07-16T00:59:15;3.72;;;2.60;;
61127;SDS011;47013;42.664;23.242;2023-07-16T01:01:41;1.45;;;1.08;;
61127;SDS011;47013;42.664;23.242;2023-07-16T01:04:06;1.95;;;1.10;;
61127;SDS011;47013;42.664;23.242;2023-07-16T01:06:35;2.33;;;0.93;;
61127;SDS011;47013;42.664;23.242;2023-07-16T01:09:07;0.77;;;0.55;;
61127;SDS011;47013;42.664;23.242;2023-07-16T01:11:33;2.00;;;1.25;;
61127;SDS011;47013;42.664;23.242;2023-07-16T01:14:01;0.68;;;0.68;;
61127;SDS011;47013;42.664;23.242;2023-07-16T01:16:28;1.30;;;0.95;;
61127;SDS011;47013;42.664;23.242;2023-07-16T01:18:53;0.45;;;0.45;;
61127;SDS011;47013;42.664;23.242;2023-07-16T01:21:19;0.85;;;0.85;;
61127;SDS011;47013;42.664;23.242;2023-07-16T01:24:04;1.60;;;1.02;;
61127;SDS011;47013;42.664;23.242;2023-07-16T01:29:36;1.17;;;0.85;;
61127;SDS011;47013;42.664;23.242;2023-07-16T01:32:07;1.73;;;0.85;;
61127;SDS011;47013;42.664;23.242;2023-07-16T01:34:34;0.97;;;0.87;;
61127;SDS011;47013;42.664;23.242;2023-07-16T01:37:01;1.92;;;0.73;;
61127;SDS011;47013;42.664;23.242;2023-07-16T01:39:27;2.67;;;1.45;;
61127;SDS011;47013;42.664;23.242;2023-07-16T01:41:53;1.65;;;1.35;;
61127;SDS011;47013;42.664;23.242;2023-07-16T01:44:19;1.00;;;0.63;;
61127;SDS011;47013;42.664;23.242;2023-07-16T01:46:45;0.50;;;0.50;;
61127;SDS011;47013;42.664;23.242;2023-07-16T01:49:24;1.50;;;1.30;;
61127;SDS011;47013;42.664;23.242;2023-07-16T01:51:49;2.40;;;1.25;;
61127;SDS011;47013;42.664;23.242;2023-07-16T01:54:14;1.10;;;0.95;;
61127;SDS011;47013;42.664;23.242;2023-07-16T01:56:40;0.40;;;0.40;;
61127;SDS011;47013;42.664;23.242;2023-07-16T01:59:05;1.17;;;0.88;;
61127;SDS011;47013;42.664;23.242;2023-07-16T02:01:30;1.00;;;0.93;;
61127;SDS011;47013;42.664;23.242;2023-07-16T02:03:56;1.20;;;0.77;;
61127;SDS011;47013;42.664;23.242;2023-07-16T02:06:21;1.00;;;0.82;;
61127;SDS011;47013;42.664;23.242;2023-07-16T02:08:46;1.33;;;0.75;;
61127;SDS011;47013;42.664;23.242;2023-07-16T02:11:12;1.15;;;0.65;;
61127;SDS011;47013;42.664;23.242;2023-07-16T02:13:37;0.52;;;0.52;;
61127;SDS011;47013;42.664;23.242;2023-07-16T02:16:02;1.13;;;0.73;;
61127;SDS011;47013;42.664;23.242;2023-07-16T02:18:28;0.55;;;0.55;;
61127;SDS011;47013;42.664;23.242;2023-07-16T02:20:53;1.48;;;1.15;;
61127;SDS011;47013;42.664;23.242;2023-07-16T02:23:19;2.22;;;1.10;;
61127;SDS011;47013;42.664;23.242;2023-07-16T02:25:44;1.25;;;0.85;;
61127;SDS011;47013;42.664;23.242;2023-07-16T02:28:09;1.02;;;0.82;;
61127;SDS011;47013;42.664;23.242;2023-07-16T02:30:35;1.38;;;0.85;;
61127;SDS011;47013;42.664;23.242;2023-07-16T02:33:00;1.65;;;1.13;;
61127;SDS011;47013;42.664;23.242;2023-07-16T02:35:26;1.90;;;0.90;;
61127;SDS011;47013;42.664;23.242;2023-07-16T02:37:51;1.77;;;1.00;;
61127;SDS011;47013;42.664;23.242;2023-07-16T02:40:16;0.52;;;0.52;;
61127;SDS011;47013;42.664;23.242;2023-07-16T02:42:42;0.65;;;0.55;;
61127;SDS011;47013;42.664;23.242;2023-07-16T02:45:07;0.77;;;0.52;;
61127;SDS011;47013;42.664;23.242;2023-07-16T02:47:33;0.95;;;0.75;;
61127;SDS011;47013;42.664;23.242;2023-07-16T02:49:58;0.77;;;0.70;;
61127;SDS011;47013;42.664;23.242;2023-07-16T02:52:24;0.95;;;0.75;;
61127;SDS011;47013;42.664;23.242;2023-07-16T02:54:49;1.27;;;0.73;;
61127;SDS011;47013;42.664;23.242;2023-07-16T02:57:14;0.68;;;0.40;;
61127;SDS011;47013;42.664;23.242;2023-07-16T02:59:40;1.60;;;1.15;;
61127;SDS011;47013;42.664;23.242;2023-07-16T03:02:05;1.47;;;0.63;;
61127;SDS011;47013;42.664;23.242;2023-07-16T03:04:30;1.10;;;0.85;;
61127;SDS011;47013;42.664;23.242;2023-07-16T03:06:56;0.77;;;0.68;;
61127;SDS011;47013;42.664;23.242;2023-07-16T03:09:21;2.47;;;1.52;;
61127;SDS011;47013;42.664;23.242;2023-07-16T03:11:46;1.02;;;0.70;;
61127;SDS011;47013;42.664;23.242;2023-07-16T03:14:12;0.50;;;0.50;;
61127;SDS011;47013;42.664;23.242;2023-07-16T03:16:37;0.40;;;0.40;;
61127;SDS011;47013;42.664;23.242;2023-07-16T03:19:02;1.25;;;0.73;;
61127;SDS011;47013;42.664;23.242;2023-07-16T03:21:28;0.75;;;0.60;;
61127;SDS011;47013;42.664;23.242;2023-07-16T03:23:53;0.32;;;0.32;;
61127;SDS011;47013;42.664;23.242;2023-07-16T03:26:18;0.50;;;0.50;;
61127;SDS011;47013;42.664;23.242;2023-07-16T03:28:44;0.63;;;0.60;;
61127;SDS011;47013;42.664;23.242;2023-07-16T03:31:09;0.30;;;0.30;;
61127;SDS011;47013;42.664;23.242;2023-07-16T03:33:34;1.17;;;0.90;;
61127;SDS011;47013;42.664;23.242;2023-07-16T03:36:00;0.33;;;0.33;;
61127;SDS011;47013;42.664;23.242;2023-07-16T03:38:25;1.52;;;0.60;;
61127;SDS011;47013;42.664;23.242;2023-07-16T03:40:50;0.85;;;0.70;;
61127;SDS011;47013;42.664;23.242;2023-07-16T03:43:16;0.55;;;0.55;;
61127;SDS011;47013;42.664;23.242;2023-07-16T03:45:42;0.63;;;0.63;;
61127;SDS011;47013;42.664;23.242;2023-07-16T03:48:07;0.57;;;0.43;;
61127;SDS011;47013;42.664;23.242;2023-07-16T03:50:33;0.63;;;0.63;;
61127;SDS011;47013;42.664;23.242;2023-07-16T03:52:59;0.82;;;0.45;;
61127;SDS011;47013;42.664;23.242;2023-07-16T03:55:24;2.42;;;1.17;;
61127;SDS011;47013;42.664;23.242;2023-07-16T03:57:50;2.00;;;1.02;;
61127;SDS011;47013;42.664;23.242;2023-07-16T04:00:16;0.70;;;0.55;;
61127;SDS011;47013;42.664;23.242;2023-07-16T04:02:42;0.55;;;0.52;;
61127;SDS011;47013;42.664;23.242;2023-07-16T04:05:07;0.50;;;0.50;;
61127;SDS011;47013;42.664;23.242;2023-07-16T04:07:33;1.05;;;0.60;;
61127;SDS011;47013;42.664;23.242;2023-07-16T04:09:58;0.88;;;0.65;;
61127;SDS011;47013;42.664;23.242;2023-07-16T04:12:23;0.75;;;0.75;;
61127;SDS011;47013;42.664;23.242;2023-07-16T04:14:51;1.15;;;0.80;;
61127;SDS011;47013;42.664;23.242;2023-07-16T04:17:21;2.33;;;1.10;;
61127;SDS011;47013;42.664;23.242;2023-07-16T04:19:46;0.57;;;0.57;;
61127;SDS011;47013;42.664;23.242;2023-07-16T04:22:12;0.90;;;0.52;;
61127;SDS011;47013;42.664;23.242;2023-07-16T04:24:37;0.50;;;0.50;;
61127;SDS011;47013;42.664;23.242;2023-07-16T04:27:03;0.80;;;0.63;;
61127;SDS011;47013;42.664;23.242;2023-07-16T04:29:31;1.13;;;0.73;;
61127;SDS011;47013;42.664;23.242;2023-07-16T04:31:56;0.65;;;0.65;;
61127;SDS011;47013;42.664;23.242;2023-07-16T04:34:22;1.42;;;0.90;;
61127;SDS011;47013;42.664;23.242;2023-07-16T04:36:47;1.20;;;0.95;;
61127;SDS011;47013;42.664;23.242;2023-07-16T04:39:12;0.57;;;0.50;;
61127;SDS011;47013;42.664;23.242;2023-07-16T04:41:38;1.40;;;1.00;;
61127;SDS011;47013;42.664;23.242;2023-07-16T04:44:04;1.25;;;0.77;;
61127;SDS011;47013;42.664;23.242;2023-07-16T04:46:30;0.43;;;0.40;;
61127;SDS011;47013;42.664;23.242;2023-07-16T04:48:55;1.48;;;1.10;;
61127;SDS011;47013;42.664;23.242;2023-07-16T04:51:21;0.57;;;0.57;;
61127;SDS011;47013;42.664;23.242;2023-07-16T04:53:46;0.95;;;0.93;;
61127;SDS011;47013;42.664;23.242;2023-07-16T04:56:12;0.85;;;0.63;;
61127;SDS011;47013;42.664;23.242;2023-07-16T04:58:38;0.63;;;0.60;;
61127;SDS011;47013;42.664;23.242;2023-07-16T05:01:04;0.60;;;0.47;;
61127;SDS011;47013;42.664;23.242;2023-07-16T05:03:29;0.57;;;0.57;;
61127;SDS011;47013;42.664;23.242;2023-07-16T05:05:54;0.38;;;0.38;;
61127;SDS011;47013;42.664;23.242;2023-07-16T05:08:20;1.38;;;0.80;;
61127;SDS011;47013;42.664;23.242;2023-07-16T05:10:45;1.65;;;1.05;;
61127;SDS011;47013;42.664;23.242;2023-07-16T05:13:10;0.85;;;0.77;;
61127;SDS011;47013;42.664;23.242;2023-07-16T05:15:37;0.63;;;0.55;;
61127;SDS011;47013;42.664;23.242;2023-07-16T05:18:02;0.88;;;0.73;;
61127;SDS011;47013;42.664;23.242;2023-07-16T05:20:28;0.88;;;0.55;;
61127;SDS011;47013;42.664;23.242;2023-07-16T05:22:53;2.53;;;1.27;;
61127;SDS011;47013;42.664;23.242;2023-07-16T05:25:19;2.45;;;1.80;;
61127;SDS011;47013;42.664;23.242;2023-07-16T05:27:44;2.20;;;0.88;;
61127;SDS011;47013;42.664;23.242;2023-07-16T05:30:09;0.57;;;0.57;;
61127;SDS011;47013;42.664;23.242;2023-07-16T05:32:35;1.45;;;0.90;;
61127;SDS011;47013;42.664;23.242;2023-07-16T05:35:01;1.65;;;0.82;;
61127;SDS011;47013;42.664;23.242;2023-07-16T05:37:26;1.83;;;0.73;;
61127;SDS011;47013;42.664;23.242;2023-07-16T05:39:52;1.48;;;0.98;;
61127;SDS011;47013;42.664;23.242;2023-07-16T05:42:17;0.85;;;0.75;;
61127;SDS011;47013;42.664;23.242;2023-07-16T05:44:43;1.00;;;0.73;;
61127;SDS011;47013;42.664;23.242;2023-07-16T05:47:10;0.57;;;0.57;;
61127;SDS011;47013;42.664;23.242;2023-07-16T05:49:35;1.05;;;0.75;;
61127;SDS011;47013;42.664;23.242;2023-07-16T05:52:01;1.67;;;1.13;;
61127;SDS011;47013;42.664;23.242;2023-07-16T05:54:26;0.50;;;0.50;;
61127;SDS011;47013;42.664;23.242;2023-07-16T05:56:51;1.35;;;0.80;;
61127;SDS011;47013;42.664;23.242;2023-07-16T05:59:17;1.10;;;0.80;;
61127;SDS011;47013;42.664;23.242;2023-07-16T06:01:42;0.60;;;0.60;;
61127;SDS011;47013;42.664;23.242;2023-07-16T06:04:08;2.28;;;1.08;;
61127;SDS011;47013;42.664;23.242;2023-07-16T06:06:33;1.17;;;0.63;;
61127;SDS011;47013;42.664;23.242;2023-07-16T06:08:59;0.85;;;0.68;;
61127;SDS011;47013;42.664;23.242;2023-07-16T06:11:24;0.50;;;0.50;;
61127;SDS011;47013;42.664;23.242;2023-07-16T06:13:49;4.00;;;1.27;;
61127;SDS011;47013;42.664;23.242;2023-07-16T06:16:15;2.85;;;1.30;;
61127;SDS011;47013;42.664;23.242;2023-07-16T06:18:40;1.10;;;0.88;;
61127;SDS011;47013;42.664;23.242;2023-07-16T06:21:06;1.38;;;1.08;;
61127;SDS011;47013;42.664;23.242;2023-07-16T06:23:31;0.85;;;0.57;;
61127;SDS011;47013;42.664;23.242;2023-07-16T06:25:56;0.57;;;0.57;;
61127;SDS011;47013;42.664;23.242;2023-07-16T06:28:22;2.17;;;1.17;;
61127;SDS011;47013;42.664;23.242;2023-07-16T06:30:48;0.70;;;0.60;;
61127;SDS011;47013;42.664;23.242;2023-07-16T06:33:14;2.67;;;0.80;;
61127;SDS011;47013;42.664;23.242;2023-07-16T06:35:39;1.02;;;0.75;;
61127;SDS011;47013;42.664;23.242;2023-07-16T06:38:05;0.80;;;0.80;;
61127;SDS011;47013;42.664;23.242;2023-07-16T06:40:30;2.92;;;0.90;;
61127;SDS011;47013;42.664;23.242;2023-07-16T06:42:56;1.08;;;0.80;;
61127;SDS011;47013;42.664;23.242;2023-07-16T06:45:22;1.85;;;1.05;;
61127;SDS011;47013;42.664;23.242;2023-07-16T06:47:47;2.08;;;1.25;;
61127;SDS011;47013;42.664;23.242;2023-07-16T06:50:13;4.72;;;1.33;;
61127;SDS011;47013;42.664;23.242;2023-07-16T06:52:39;1.65;;;1.02;;
61127;SDS011;47013;42.664;23.242;2023-07-16T06:55:04;1.65;;;1.17;;
61127;SDS011;47013;42.664;23.242;2023-07-16T06:57:30;1.73;;;1.10;;
61127;SDS011;47013;42.664;23.242;2023-07-16T06:59:55;1.15;;;0.88;;
61127;SDS011;47013;42.664;23.242;2023-07-16T07:02:21;0.63;;;0.63;;
61127;SDS011;47013;42.664;23.242;2023-07-16T07:04:46;1.33;;;1.00;;
61127;SDS011;47013;42.664;23.242;2023-07-16T07:07:11;1.02;;;0.88;;
61127;SDS011;47013;42.664;23.242;2023-07-16T07:09:37;1.38;;;1.05;;
61127;SDS011;47013;42.664;23.242;2023-07-16T07:12:02;1.15;;;1.05;;
61127;SDS011;47013;42.664;23.242;2023-07-16T07:14:28;1.98;;;1.15;;
61127;SDS011;47013;42.664;23.242;2023-07-16T07:16:53;1.35;;;0.88;;
61127;SDS011;47013;42.664;23.242;2023-07-16T07:19:19;2.33;;;1.30;;
61127;SDS011;47013;42.664;23.242;2023-07-16T07:21:44;2.80;;;1.40;;
61127;SDS011;47013;42.664;23.242;2023-07-16T07:24:10;1.70;;;0.93;;
61127;SDS011;47013;42.664;23.242;2023-07-16T07:26:35;1.77;;;1.30;;
61127;SDS011;47013;42.664;23.242;2023-07-16T07:29:01;0.88;;;0.77;;
61127;SDS011;47013;42.664;23.242;2023-07-16T07:31:26;1.40;;;0.77;;
61127;SDS011;47013;42.664;23.242;2023-07-16T07:33:52;1.30;;;0.85;;
61127;SDS011;47013;42.664;23.242;2023-07-16T07:36:18;2.90;;;1.38;;
61127;SDS011;47013;42.664;23.242;2023-07-16T07:38:44;1.10;;;0.82;;
61127;SDS011;47013;42.664;23.242;2023-07-16T07:41:09;1.52;;;1.00;;
61127;SDS011;47013;42.664;23.242;2023-07-16T07:43:35;1.55;;;1.08;;
61127;SDS011;47013;42.664;23.242;2023-07-16T07:46:00;1.27;;;1.00;;
61127;SDS011;47013;42.664;23.242;2023-07-16T07:48:26;1.63;;;1.20;;
61127;SDS011;47013;42.664;23.242;2023-07-16T07:50:51;1.40;;;0.77;;
61127;SDS011;47013;42.664;23.242;2023-07-16T07:53:16;1.65;;;1.25;;
61127;SDS011;47013;42.664;23.242;2023-07-16T07:55:45;3.28;;;1.48;;
61127;SDS011;47013;42.664;23.242;2023-07-16T07:58:11;2.58;;;1.42;;
61127;SDS011;47013;42.664;23.242;2023-07-16T08:00:37;1.83;;;1.23;;
61127;SDS011;47013;42.664;23.242;2023-07-16T08:03:03;1.25;;;0.98;;
61127;SDS011;47013;42.664;23.242;2023-07-16T08:05:28;1.23;;;1.10;;
61127;SDS011;47013;42.664;23.242;2023-07-16T08:07:54;2.42;;;1.23;;
61127;SDS011;47013;42.664;23.242;2023-07-16T08:10:20;2.03;;;1.30;;
61127;SDS011;47013;42.664;23.242;2023-07-16T08:12:46;1.50;;;1.13;;
61127;SDS011;47013;42.664;23.242;2023-07-16T08:15:12;3.45;;;1.40;;
61127;SDS011;47013;42.664;23.242;2023-07-16T08:17:43;1.23;;;0.98;;
61127;SDS011;47013;42.664;23.242;2023-07-16T08:20:10;3.40;;;1.55;;
61127;SDS011;47013;42.664;23.242;2023-07-16T08:22:37;0.88;;;0.88;;
61127;SDS011;47013;42.664;23.242;2023-07-16T08:25:03;3.63;;;1.70;;
61127;SDS011;47013;42.664;23.242;2023-07-16T08:27:29;2.97;;;1.38;;
61127;SDS011;47013;42.664;23.242;2023-07-16T08:29:55;2.10;;;1.35;;
61127;SDS011;47013;42.664;23.242;2023-07-16T08:32:20;2.20;;;1.30;;
61127;SDS011;47013;42.664;23.242;2023-07-16T08:34:46;2.38;;;1.48;;
61127;SDS011;47013;42.664;23.242;2023-07-16T08:37:12;1.77;;;1.45;;
61127;SDS011;47013;42.664;23.242;2023-07-16T08:39:38;5.65;;;1.75;;
61127;SDS011;47013;42.664;23.242;2023-07-16T08:42:04;3.83;;;1.50;;
61127;SDS011;47013;42.664;23.242;2023-07-16T08:44:29;1.52;;;0.90;;
61127;SDS011;47013;42.664;23.242;2023-07-16T08:46:55;1.85;;;1.35;;
61127;SDS011;47013;42.664;23.242;2023-07-16T08:49:21;3.13;;;1.67;;
61127;SDS011;47013;42.664;23.242;2023-07-16T08:51:48;5.35;;;1.70;;
61127;SDS011;47013;42.664;23.242;2023-07-16T08:54:14;2.97;;;1.60;;
61127;SDS011;47013;42.664;23.242;2023-07-16T08:56:45;1.80;;;1.25;;
61127;SDS011;47013;42.664;23.242;2023-07-16T08:59:12;2.55;;;1.30;;
61127;SDS011;47013;42.664;23.242;2023-07-16T09:01:39;2.55;;;1.65;;
61127;SDS011;47013;42.664;23.242;2023-07-16T09:04:05;2.65;;;1.40;;
61127;SDS011;47013;42.664;23.242;2023-07-16T09:06:30;2.80;;;1.60;;
61127;SDS011;47013;42.664;23.242;2023-07-16T09:08:55;4.25;;;1.60;;
61127;SDS011;47013;42.664;23.242;2023-07-16T09:11:21;2.72;;;1.70;;
61127;SDS011;47013;42.664;23.242;2023-07-16T09:13:47;3.22;;;1.58;;
61127;SDS011;47013;42.664;23.242;2023-07-16T09:16:19;3.17;;;1.50;;
61127;SDS011;47013;42.664;23.242;2023-07-16T09:18:46;2.75;;;1.50;;
61127;SDS011;47013;42.664;23.242;2023-07-16T09:21:12;2.60;;;1.65;;
61127;SDS011;47013;42.664;23.242;2023-07-16T09:23:38;2.30;;;1.55;;
61127;SDS011;47013;42.664;23.242;2023-07-16T09:26:03;3.60;;;1.73;;
61127;SDS011;47013;42.664;23.242;2023-07-16T09:28:32;2.38;;;1.60;;
61127;SDS011;47013;42.664;23.242;2023-07-16T09:31:04;2.63;;;1.52;;
61127;SDS011;47013;42.664;23.242;2023-07-16T09:33:31;2.35;;;1.38;;
61127;SDS011;47013;42.664;23.242;2023-07-16T09:35:57;2.60;;;1.70;;
61127;SDS011;47013;42.664;23.242;2023-07-16T09:38:23;2.15;;;1.40;;
61127;SDS011;47013;42.664;23.242;2023-07-16T09:40:52;2.45;;;1.45;;
61127;SDS011;47013;42.664;23.242;2023-07-16T09:43:18;2.08;;;1.27;;
61127;SDS011;47013;42.664;23.242;2023-07-16T09:45:43;1.85;;;1.58;;
61127;SDS011;47013;42.664;23.242;2023-07-16T09:48:09;2.30;;;1.70;;
61127;SDS011;47013;42.664;23.242;2023-07-16T09:50:35;2.50;;;1.50;;
61127;SDS011;47013;42.664;23.242;2023-07-16T09:53:03;1.95;;;1.50;;
61127;SDS011;47013;42.664;23.242;2023-07-16T09:55:30;2.28;;;1.50;;
61127;SDS011;47013;42.664;23.242;2023-07-16T09:58:00;3.22;;;1.77;;
61127;SDS011;47013;42.664;23.242;2023-07-16T10:00:28;3.05;;;1.70;;
61127;SDS011;47013;42.664;23.242;2023-07-16T10:02:55;2.10;;;1.50;;
61127;SDS011;47013;42.664;23.242;2023-07-16T10:05:24;3.00;;;1.70;;
61127;SDS011;47013;42.664;23.242;2023-07-16T10:08:03;3.35;;;1.88;;
61127;SDS011;47013;42.664;23.242;2023-07-16T10:13:13;2.42;;;1.70;;
61127;SDS011;47013;42.664;23.242;2023-07-16T10:15:50;2.88;;;1.73;;
61127;SDS011;47013;42.664;23.242;2023-07-16T10:20:50;2.58;;;1.63;;
61127;SDS011;47013;42.664;23.242;2023-07-16T10:23:17;2.55;;;1.60;;
61127;SDS011;47013;42.664;23.242;2023-07-16T10:25:59;2.58;;;1.65;;
61127;SDS011;47013;42.664;23.242;2023-07-16T10:28:25;2.85;;;1.63;;
61127;SDS011;47013;42.664;23.242;2023-07-16T10:30:51;3.17;;;1.88;;
61127;SDS011;47013;42.664;23.242;2023-07-16T10:33:17;3.05;;;1.65;;
61127;SDS011;47013;42.664;23.242;2023-07-16T10:35:44;2.63;;;1.67;;
61127;SDS011;47013;42.664;23.242;2023-07-16T10:38:10;4.85;;;2.38;;
61127;SDS011;47013;42.664;23.242;2023-07-16T10:40:40;3.70;;;2.10;;
61127;SDS011;47013;42.664;23.242;2023-07-16T10:43:09;3.90;;;1.77;;
61127;SDS011;47013;42.664;23.242;2023-07-16T10:45:35;2.67;;;1.67;;
61127;SDS011;47013;42.664;23.242;2023-07-16T10:48:00;2.97;;;1.63;;
61127;SDS011;47013;42.664;23.242;2023-07-16T10:50:26;2.58;;;1.40;;
61127;SDS011;47013;42.664;23.242;2023-07-16T10:52:52;2.95;;;1.73;;
61127;SDS011;47013;42.664;23.242;2023-07-16T10:55:18;2.55;;;1.60;;
61127;SDS011;47013;42.664;23.242;2023-07-16T10:57:44;3.28;;;1.83;;
61127;SDS011;47013;42.664;23.242;2023-07-16T11:00:10;2.47;;;1.60;;
61127;SDS011;47013;42.664;23.242;2023-07-16T11:02:38;3.38;;;1.92;;
61127;SDS011;47013;42.664;23.242;2023-07-16T11:05:12;3.50;;;1.90;;
61127;SDS011;47013;42.664;23.242;2023-07-16T11:07:42;3.03;;;1.73;;
61127;SDS011;47013;42.664;23.242;2023-07-16T11:10:09;2.63;;;1.73;;
61127;SDS011;47013;42.664;23.242;2023-07-16T11:12:34;3.38;;;1.88;;
61127;SDS011;47013;42.664;23.242;2023-07-16T11:15:00;3.25;;;1.77;;
61127;SDS011;47013;42.664;23.242;2023-07-16T11:17:25;3.05;;;1.80;;
61127;SDS011;47013;42.664;23.242;2023-07-16T11:19:51;2.20;;;1.50;;
61127;SDS011;47013;42.664;23.242;2023-07-16T11:22:17;3.53;;;2.00;;
61127;SDS011;47013;42.664;23.242;2023-07-16T11:24:47;2.67;;;1.75;;
61127;SDS011;47013;42.664;23.242;2023-07-16T11:27:21;3.22;;;1.80;;
61127;SDS011;47013;42.664;23.242;2023-07-16T11:29:58;6.63;;;2.42;;
61127;SDS011;47013;42.664;23.242;2023-07-16T11:34:53;2.65;;;1.60;;
61127;SDS011;47013;42.664;23.242;2023-07-16T11:37:20;3.50;;;1.80;;
61127;SDS011;47013;42.664;23.242;2023-07-16T11:39:46;1.92;;;1.50;;
61127;SDS011;47013;42.664;23.242;2023-07-16T11:42:12;2.90;;;1.95;;
61127;SDS011;47013;42.664;23.242;2023-07-16T11:44:38;3.40;;;1.88;;
61127;SDS011;47013;42.664;23.242;2023-07-16T11:47:03;3.08;;;1.73;;
61127;SDS011;47013;42.664;23.242;2023-07-16T11:49:29;3.05;;;1.45;;
61127;SDS011;47013;42.664;23.242;2023-07-16T11:51:55;3.65;;;1.90;;
61127;SDS011;47013;42.664;23.242;2023-07-16T11:54:21;3.90;;;1.60;;
61127;SDS011;47013;42.664;23.242;2023-07-16T11:56:47;3.05;;;1.73;;
61127;SDS011;47013;42.664;23.242;2023-07-16T11:59:13;1.70;;;1.40;;
61127;SDS011;47013;42.664;23.242;2023-07-16T12:01:38;3.30;;;1.70;;
61127;SDS011;47013;42.664;23.242;2023-07-16T12:04:04;1.92;;;1.35;;
61127;SDS011;47013;42.664;23.242;2023-07-16T12:06:29;3.67;;;1.80;;
61127;SDS011;47013;42.664;23.242;2023-07-16T12:08:55;3.08;;;1.73;;
61127;SDS011;47013;42.664;23.242;2023-07-16T12:11:20;3.03;;;1.77;;
61127;SDS011;47013;42.664;23.242;2023-07-16T12:13:47;3.00;;;1.70;;
61127;SDS011;47013;42.664;23.242;2023-07-16T12:16:12;2.42;;;1.65;;
61127;SDS011;47013;42.664;23.242;2023-07-16T12:18:37;3.33;;;1.88;;
61127;SDS011;47013;42.664;23.242;2023-07-16T12:21:03;2.75;;;1.38;;
61127;SDS011;47013;42.664;23.242;2023-07-16T12:23:28;4.07;;;2.10;;
61127;SDS011;47013;42.664;23.242;2023-07-16T12:25:53;2.22;;;1.70;;
61127;SDS011;47013;42.664;23.242;2023-07-16T12:28:19;2.92;;;1.80;;
61127;SDS011;47013;42.664;23.242;2023-07-16T12:30:44;2.88;;;1.70;;
61127;SDS011;47013;42.664;23.242;2023-07-16T12:33:09;1.90;;;1.45;;
61127;SDS011;47013;42.664;23.242;2023-07-16T12:35:35;4.07;;;2.00;;
61127;SDS011;47013;42.664;23.242;2023-07-16T12:38:00;1.58;;;1.42;;
61127;SDS011;47013;42.664;23.242;2023-07-16T12:40:27;2.65;;;1.65;;
61127;SDS011;47013;42.664;23.242;2023-07-16T12:42:54;3.70;;;2.13;;
61127;SDS011;47013;42.664;23.242;2023-07-16T12:45:19;2.72;;;1.80;;
61127;SDS011;47013;42.664;23.242;2023-07-16T12:47:44;4.30;;;1.88;;
61127;SDS011;47013;42.664;23.242;2023-07-16T12:50:10;1.92;;;1.42;;
61127;SDS011;47013;42.664;23.242;2023-07-16T12:52:35;3.05;;;1.77;;
61127;SDS011;47013;42.664;23.242;2023-07-16T12:55:01;1.85;;;1.30;;
61127;SDS011;47013;42.664;23.242;2023-07-16T12:57:26;3.85;;;1.52;;
61127;SDS011;47013;42.664;23.242;2023-07-16T12:59:52;2.15;;;1.52;;
61127;SDS011;47013;42.664;23.242;2023-07-16T13:02:17;3.10;;;1.73;;
61127;SDS011;47013;42.664;23.242;2023-07-16T13:04:42;2.65;;;1.73;;
61127;SDS011;47013;42.664;23.242;2023-07-16T13:07:08;3.17;;;1.92;;
61127;SDS011;47013;42.664;23.242;2023-07-16T13:09:33;2.75;;;1.67;;
61127;SDS011;47013;42.664;23.242;2023-07-16T13:11:59;2.95;;;1.52;;
61127;SDS011;47013;42.664;23.242;2023-07-16T13:14:24;4.90;;;2.28;;
61127;SDS011;47013;42.664;23.242;2023-07-16T13:16:49;2.92;;;1.70;;
61127;SDS011;47013;42.664;23.242;2023-07-16T13:19:15;2.25;;;1.25;;
61127;SDS011;47013;42.664;23.242;2023-07-16T13:21:40;3.15;;;1.60;;
61127;SDS011;47013;42.664;23.242;2023-07-16T13:24:05;3.13;;;1.85;;
61127;SDS011;47013;42.664;23.242;2023-07-16T13:26:31;1.75;;;1.30;;
61127;SDS011;47013;42.664;23.242;2023-07-16T13:28:57;2.83;;;1.67;;
61127;SDS011;47013;42.664;23.242;2023-07-16T13:31:22;2.35;;;1.52;;
61127;SDS011;47013;42.664;23.242;2023-07-16T13:33:48;2.20;;;1.20;;
61127;SDS011;47013;42.664;23.242;2023-07-16T13:36:13;2.70;;;1.55;;
61127;SDS011;47013;42.664;23.242;2023-07-16T13:38:38;2.45;;;1.67;;
61127;SDS011;47013;42.664;23.242;2023-07-16T13:41:04;5.47;;;1.60;;
61127;SDS011;47013;42.664;23.242;2023-07-16T13:43:29;2.58;;;1.60;;
61127;SDS011;47013;42.664;23.242;2023-07-16T13:45:54;2.45;;;1.52;;
61127;SDS011;47013;42.664;23.242;2023-07-16T13:48:20;2.05;;;1.55;;
61127;SDS011;47013;42.664;23.242;2023-07-16T13:50:45;2.90;;;1.48;;
61127;SDS011;47013;42.664;23.242;2023-07-16T13:53:11;4.38;;;1.95;;
61127;SDS011;47013;42.664;23.242;2023-07-16T13:55:36;1.98;;;1.50;;
61127;SDS011;47013;42.664;23.242;2023-07-16T13:58:01;2.88;;;1.50;;
61127;SDS011;47013;42.664;23.242;2023-07-16T14:00:27;2.30;;;1.50;;
61127;SDS011;47013;42.664;23.242;2023-07-16T14:02:53;6.07;;;1.98;;
61127;SDS011;47013;42.664;23.242;2023-07-16T14:05:18;3.22;;;1.65;;
61127;SDS011;47013;42.664;23.242;2023-07-16T14:07:44;3.30;;;1.83;;
61127;SDS011;47013;42.664;23.242;2023-07-16T14:10:10;3.72;;;1.55;;
61127;SDS011;47013;42.664;23.242;2023-07-16T14:12:36;2.78;;;1.67;;
61127;SDS011;47013;42.664;23.242;2023-07-16T14:15:01;1.95;;;1.38;;
61127;SDS011;47013;42.664;23.242;2023-07-16T14:17:26;2.55;;;1.60;;
61127;SDS011;47013;42.664;23.242;2023-07-16T14:19:52;3.60;;;1.60;;
61127;SDS011;47013;42.664;23.242;2023-07-16T14:22:17;2.53;;;1.70;;
61127;SDS011;47013;42.664;23.242;2023-07-16T14:24:43;1.58;;;1.13;;
61127;SDS011;47013;42.664;23.242;2023-07-16T14:27:09;3.15;;;1.65;;
61127;SDS011;47013;42.664;23.242;2023-07-16T14:29:34;3.25;;;1.88;;
61127;SDS011;47013;42.664;23.242;2023-07-16T14:32:00;2.58;;;1.83;;
61127;SDS011;47013;42.664;23.242;2023-07-16T14:34:26;2.67;;;1.80;;
61127;SDS011;47013;42.664;23.242;2023-07-16T14:36:51;3.67;;;1.90;;